createdAt,value
2023-02-06T00:00:02.802Z,4.70
2023-02-06T00:01:02.786Z,5.00
2023-02-06T00:02:02.779Z,5.70
2023-02-06T00:03:03.735Z,4.00
2023-02-06T00:04:02.744Z,5.20
2023-02-06T00:05:02.742Z,4.30
2023-02-06T00:06:02.834Z,4.60
2023-02-06T00:07:02.710Z,4.60
2023-02-06T00:08:02.713Z,4.90
2023-02-06T00:09:02.715Z,4.90
2023-02-06T00:10:03.696Z,4.20
2023-02-06T00:11:02.710Z,4.50
2023-02-06T00:12:02.670Z,5.00
2023-02-06T00:13:02.642Z,4.70
2023-02-06T00:14:02.648Z,5.10
2023-02-06T00:15:02.616Z,5.50
2023-02-06T00:16:02.724Z,6.10
2023-02-06T00:17:02.600Z,5.50
2023-02-06T00:18:02.617Z,5.00
2023-02-06T00:19:05.208Z,5.70
2023-02-06T00:20:02.579Z,5.20
2023-02-06T00:21:02.569Z,5.80
2023-02-06T00:22:02.568Z,5.60
2023-02-06T00:23:02.535Z,4.70
2023-02-06T00:24:02.530Z,5.00
2023-02-06T00:25:02.520Z,5.80
2023-02-06T00:26:02.741Z,5.90
2023-02-06T00:27:02.513Z,6.00
2023-02-06T00:28:02.824Z,5.60
2023-02-06T00:29:02.464Z,5.70
2023-02-06T00:30:02.476Z,6.00
2023-02-06T00:31:02.481Z,5.90
2023-02-06T00:32:02.436Z,6.10
2023-02-06T00:33:02.425Z,6.30
2023-02-06T00:34:02.475Z,6.30
2023-02-06T00:35:02.397Z,6.70
2023-02-06T00:36:02.418Z,6.70
2023-02-06T00:37:02.388Z,6.00
2023-02-06T00:38:02.414Z,5.40
2023-02-06T00:39:03.414Z,5.70
2023-02-06T00:40:02.384Z,5.30
2023-02-06T00:41:02.356Z,6.00
2023-02-06T00:42:02.359Z,5.20
2023-02-06T00:43:02.398Z,5.50
2023-02-06T00:44:02.312Z,6.50
2023-02-06T00:45:02.299Z,6.20
2023-02-06T00:46:02.446Z,6.10
2023-02-06T00:47:02.272Z,6.80
2023-02-06T00:48:02.304Z,6.50
2023-02-06T00:49:02.270Z,5.80
2023-02-06T00:50:02.265Z,6.90
2023-02-06T00:51:02.253Z,6.70
2023-02-06T00:52:04.243Z,6.00
2023-02-06T00:53:02.215Z,5.90
2023-02-06T00:54:02.210Z,5.90
2023-02-06T00:55:02.219Z,5.50
2023-02-06T00:56:02.188Z,5.90
2023-02-06T00:57:02.183Z,6.00
2023-02-06T00:58:02.185Z,4.90
2023-02-06T00:59:02.166Z,5.20
2023-02-06T01:00:02.707Z,5.20
2023-02-06T01:01:02.171Z,5.00
2023-02-06T01:02:02.207Z,5.50
2023-02-06T01:03:02.774Z,4.90
2023-02-06T01:04:02.092Z,5.40
2023-02-06T01:05:02.119Z,4.60
2023-02-06T01:06:02.065Z,4.80
2023-02-06T01:07:02.710Z,5.20
2023-02-06T01:08:04.424Z,4.80
2023-02-06T01:09:02.032Z,4.50
2023-02-06T01:10:02.031Z,4.40
2023-02-06T01:11:02.028Z,5.00
2023-02-06T01:12:02.721Z,4.10
2023-02-06T01:13:01.991Z,4.50
2023-02-06T01:14:01.979Z,4.80
2023-02-06T01:15:02.747Z,4.00
2023-02-06T01:16:02.006Z,4.90
2023-02-06T01:17:01.948Z,4.40
2023-02-06T01:18:02.718Z,4.70
2023-02-06T01:19:01.936Z,4.60
2023-02-06T01:20:01.918Z,4.40
2023-02-06T01:21:04.706Z,4.10
2023-02-06T01:22:01.894Z,4.60
2023-02-06T01:23:01.904Z,4.00
2023-02-06T01:24:01.898Z,3.70
2023-02-06T01:25:01.852Z,4.60
2023-02-06T01:26:01.842Z,4.50
2023-02-06T01:27:01.846Z,4.90
2023-02-06T01:28:02.717Z,5.40
2023-02-06T01:29:01.816Z,4.90
2023-02-06T01:30:07.247Z,4.30
2023-02-06T01:31:01.927Z,4.50
2023-02-06T01:32:01.792Z,4.70
2023-02-06T01:33:08.695Z,5.70
2023-02-06T01:34:01.759Z,4.30
2023-02-06T01:35:01.763Z,4.60
2023-02-06T01:36:01.735Z,4.20
2023-02-06T01:37:01.739Z,4.90
2023-02-06T01:38:01.732Z,4.20
2023-02-06T01:39:04.706Z,4.40
2023-02-06T01:40:01.708Z,4.40
2023-02-06T01:41:01.722Z,4.40
2023-02-06T01:42:01.670Z,4.60
2023-02-06T01:43:01.693Z,4.30
2023-02-06T01:44:01.655Z,4.40
2023-02-06T01:45:01.724Z,4.90
2023-02-06T01:46:01.652Z,4.60
2023-02-06T01:47:01.616Z,4.10
2023-02-06T01:48:01.618Z,4.50
2023-02-06T01:49:01.616Z,3.80
2023-02-06T01:50:01.597Z,4.00
2023-02-06T01:51:01.564Z,4.10
2023-02-06T01:52:01.580Z,3.80
2023-02-06T01:53:02.199Z,4.90
2023-02-06T01:54:01.543Z,4.80
2023-02-06T01:55:01.572Z,5.30
2023-02-06T01:56:02.202Z,4.70
2023-02-06T01:57:01.545Z,5.20
2023-02-06T01:58:01.520Z,4.90
2023-02-06T01:59:01.540Z,5.30
2023-02-06T02:00:01.518Z,4.90
2023-02-06T02:01:01.555Z,4.10
2023-02-06T02:02:01.499Z,5.10
2023-02-06T02:03:01.452Z,4.70
2023-02-06T02:04:01.528Z,4.40
2023-02-06T02:05:01.425Z,5.20
2023-02-06T02:06:02.482Z,5.60
2023-02-06T02:07:01.418Z,4.60
2023-02-06T02:08:01.481Z,4.40
2023-02-06T02:09:01.376Z,5.30
2023-02-06T02:10:01.396Z,4.50
2023-02-06T02:11:01.364Z,5.10
2023-02-06T02:12:02.204Z,4.70
2023-02-06T02:13:01.339Z,4.80
2023-02-06T02:14:01.336Z,5.40
2023-02-06T02:15:04.201Z,4.60
2023-02-06T02:16:01.389Z,4.70
2023-02-06T02:17:02.199Z,4.60
2023-02-06T02:18:01.476Z,5.00
2023-02-06T02:19:01.287Z,5.50
2023-02-06T02:20:01.267Z,4.80
2023-02-06T02:21:04.206Z,4.50
2023-02-06T02:22:01.246Z,5.40
2023-02-06T02:23:01.237Z,4.30
2023-02-06T02:24:01.248Z,5.40
2023-02-06T02:25:03.225Z,4.30
2023-02-06T02:26:01.203Z,4.20
2023-02-06T02:27:01.215Z,4.50
2023-02-06T02:28:01.748Z,4.10
2023-02-06T02:29:01.192Z,5.20
2023-02-06T02:30:01.183Z,5.00
2023-02-06T02:31:01.710Z,5.10
2023-02-06T02:32:01.234Z,4.80
2023-02-06T02:33:01.122Z,4.90
2023-02-06T02:34:01.168Z,4.60
2023-02-06T02:35:01.112Z,4.60
2023-02-06T02:36:01.240Z,5.20
2023-02-06T02:37:01.699Z,4.80
2023-02-06T02:38:01.100Z,5.60
2023-02-06T02:39:01.099Z,4.50
2023-02-06T02:40:01.084Z,5.20
2023-02-06T02:41:01.040Z,4.70
2023-02-06T02:42:01.071Z,5.50
2023-02-06T02:43:01.025Z,5.10
2023-02-06T02:44:01.017Z,4.90
2023-02-06T02:45:01.002Z,4.70
2023-02-06T02:46:01.029Z,5.10
2023-02-06T02:47:00.977Z,5.70
2023-02-06T02:48:01.010Z,6.10
2023-02-06T02:49:00.947Z,5.40
2023-02-06T02:50:01.100Z,5.50
2023-02-06T02:51:01.696Z,4.60
2023-02-06T02:52:00.937Z,5.40
2023-02-06T02:53:00.928Z,4.90
2023-02-06T02:54:00.938Z,5.10
2023-02-06T02:55:00.884Z,4.20
2023-02-06T02:56:00.910Z,5.00
2023-02-06T02:57:00.868Z,4.90
2023-02-06T02:58:00.858Z,5.40
2023-02-06T02:59:00.868Z,4.30
2023-02-06T03:00:00.852Z,4.60
2023-02-06T03:01:00.877Z,5.30
2023-02-06T03:02:01.758Z,4.80
2023-02-06T03:03:07.681Z,5.10
2023-02-06T03:04:00.791Z,5.40
2023-02-06T03:05:00.812Z,5.00
2023-02-06T03:06:00.802Z,4.70
2023-02-06T03:07:00.763Z,4.40
2023-02-06T03:08:00.746Z,5.50
2023-02-06T03:09:00.752Z,4.40
2023-02-06T03:10:00.730Z,5.00
2023-02-06T03:11:00.722Z,5.40
2023-02-06T03:12:01.693Z,5.20
2023-02-06T03:13:00.694Z,5.60
2023-02-06T03:14:00.703Z,5.60
2023-02-06T03:15:00.729Z,4.60
2023-02-06T03:16:00.670Z,6.00
2023-02-06T03:17:01.681Z,5.20
2023-02-06T03:18:00.643Z,5.40
2023-02-06T03:19:00.635Z,5.30
2023-02-06T03:20:01.186Z,5.20
2023-02-06T03:21:00.641Z,5.60
2023-02-06T03:22:00.630Z,6.10
2023-02-06T03:23:00.607Z,6.60
2023-02-06T03:24:00.597Z,5.70
2023-02-06T03:25:00.589Z,5.60
2023-02-06T03:26:00.566Z,5.20
2023-02-06T03:27:00.572Z,5.00
2023-02-06T03:28:03.286Z,5.40
2023-02-06T03:29:03.191Z,5.40
2023-02-06T03:30:00.534Z,5.20
2023-02-06T03:31:00.722Z,5.50
2023-02-06T03:32:00.516Z,5.40
2023-02-06T03:33:00.517Z,4.70
2023-02-06T03:34:03.198Z,5.60
2023-02-06T03:35:00.467Z,5.10
2023-02-06T03:36:00.467Z,5.70
2023-02-06T03:37:00.467Z,5.40
2023-02-06T03:38:00.493Z,5.20
2023-02-06T03:39:00.428Z,4.80
2023-02-06T03:40:00.434Z,4.80
2023-02-06T03:41:00.401Z,5.20
2023-02-06T03:42:00.405Z,5.10
2023-02-06T03:43:00.410Z,5.00
2023-02-06T03:44:00.384Z,4.30
2023-02-06T03:45:00.367Z,4.90
2023-02-06T03:46:03.259Z,5.30
2023-02-06T03:47:00.371Z,4.70
2023-02-06T03:48:01.190Z,4.70
2023-02-06T03:49:00.326Z,5.90
2023-02-06T03:50:00.324Z,6.00
2023-02-06T03:51:00.328Z,5.20
2023-02-06T03:52:00.307Z,6.30
2023-02-06T03:53:00.296Z,4.70
2023-02-06T03:54:00.308Z,4.40
2023-02-06T03:55:00.290Z,4.60
2023-02-06T03:56:00.252Z,4.70
2023-02-06T03:57:03.201Z,4.50
2023-02-06T03:58:00.236Z,5.60
2023-02-06T03:59:00.269Z,5.40
2023-02-06T04:00:00.209Z,5.20
2023-02-06T04:01:00.253Z,5.10
2023-02-06T04:02:00.277Z,5.70
2023-02-06T04:03:00.180Z,6.20
2023-02-06T04:04:00.188Z,5.70
2023-02-06T04:05:00.179Z,5.30
2023-02-06T04:06:00.159Z,6.20
2023-02-06T04:07:00.141Z,5.00
2023-02-06T04:08:00.150Z,5.00
2023-02-06T04:09:00.136Z,5.20
2023-02-06T04:10:00.198Z,5.40
2023-02-06T04:11:00.123Z,4.40
2023-02-06T04:12:00.092Z,4.70
2023-02-06T04:13:00.081Z,4.60
2023-02-06T04:14:00.230Z,4.60
2023-02-06T04:15:00.053Z,4.60
2023-02-06T04:16:00.086Z,5.00
2023-02-06T04:17:00.036Z,5.20
2023-02-06T04:18:01.478Z,5.30
2023-02-06T04:19:00.040Z,5.10
2023-02-06T04:20:00.693Z,4.70
2023-02-06T04:21:00.008Z,4.60
2023-02-06T04:21:59.982Z,5.30
2023-02-06T04:22:59.974Z,4.60
2023-02-06T04:23:59.980Z,4.60
2023-02-06T04:24:59.947Z,4.50
2023-02-06T04:25:59.967Z,4.70
2023-02-06T04:27:00.119Z,5.60
2023-02-06T04:27:59.917Z,5.60
2023-02-06T04:28:59.986Z,5.30
2023-02-06T04:29:59.900Z,4.70
2023-02-06T04:31:00.134Z,5.10
2023-02-06T04:31:59.884Z,6.10
2023-02-06T04:32:59.860Z,5.10
2023-02-06T04:34:00.893Z,5.70
2023-02-06T04:34:59.847Z,5.40
2023-02-06T04:35:59.829Z,4.40
2023-02-06T04:36:59.852Z,4.30
2023-02-06T04:37:59.808Z,5.60
2023-02-06T04:38:59.803Z,5.40
2023-02-06T04:39:59.796Z,4.70
2023-02-06T04:40:59.795Z,4.80
2023-02-06T04:41:59.873Z,5.30
2023-02-06T04:43:02.690Z,5.10
2023-02-06T04:43:59.752Z,5.30
2023-02-06T04:44:59.741Z,4.80
2023-02-06T04:45:59.784Z,4.40
2023-02-06T04:46:59.745Z,4.60
2023-02-06T04:47:59.707Z,4.70
2023-02-06T04:48:59.714Z,4.60
2023-02-06T04:49:59.714Z,5.30
2023-02-06T04:50:59.675Z,4.90
2023-02-06T04:51:59.693Z,5.00
2023-02-06T04:52:59.675Z,6.40
2023-02-06T04:54:02.207Z,6.30
2023-02-06T04:54:59.636Z,6.10
2023-02-06T04:55:59.628Z,4.40
2023-02-06T04:57:02.190Z,5.80
2023-02-06T04:57:59.775Z,5.50
2023-02-06T04:58:59.586Z,5.00
2023-02-06T04:59:59.579Z,5.90
2023-02-06T05:00:59.570Z,6.40
2023-02-06T05:01:59.563Z,5.20
2023-02-06T05:02:59.574Z,5.90
2023-02-06T05:03:59.554Z,5.60
2023-02-06T05:04:59.507Z,5.60
2023-02-06T05:05:59.508Z,5.20
2023-02-06T05:06:59.521Z,5.80
2023-02-06T05:07:59.534Z,5.20
2023-02-06T05:08:59.488Z,4.90
2023-02-06T05:09:59.466Z,5.00
2023-02-06T05:10:59.460Z,5.00
2023-02-06T05:11:59.464Z,5.50
2023-02-06T05:12:59.442Z,5.00
2023-02-06T05:13:59.460Z,5.00
2023-02-06T05:14:59.422Z,4.90
2023-02-06T05:15:59.452Z,4.80
2023-02-06T05:17:14.185Z,5.00
2023-02-06T05:17:59.386Z,5.70
2023-02-06T05:18:59.364Z,5.40
2023-02-06T05:19:59.388Z,5.40
2023-02-06T05:20:59.353Z,5.00
2023-02-06T05:21:59.342Z,5.70
2023-02-06T05:22:59.324Z,5.20
2023-02-06T05:23:59.317Z,5.20
2023-02-06T05:24:59.319Z,5.50
2023-02-06T05:25:59.320Z,7.10
2023-02-06T05:26:59.305Z,5.30
2023-02-06T05:27:59.317Z,5.80
2023-02-06T05:28:59.272Z,7.00
2023-02-06T05:29:59.366Z,4.80
2023-02-06T05:30:59.294Z,6.00
2023-02-06T05:31:59.293Z,5.10
2023-02-06T05:32:59.226Z,7.20
2023-02-06T05:33:59.217Z,5.60
2023-02-06T05:34:59.200Z,7.00
2023-02-06T05:35:59.230Z,6.20
2023-02-06T05:36:59.192Z,6.90
2023-02-06T05:37:59.177Z,7.10
2023-02-06T05:38:59.165Z,7.60
2023-02-06T05:40:00.105Z,7.50
2023-02-06T05:40:59.142Z,7.70
2023-02-06T05:41:59.175Z,8.40
2023-02-06T05:42:59.109Z,7.60
2023-02-06T05:43:59.122Z,7.90
2023-02-06T05:44:59.094Z,9.30
2023-02-06T05:45:59.136Z,9.10
2023-02-06T05:46:59.103Z,8.10
2023-02-06T05:47:59.072Z,8.80
2023-02-06T05:48:59.054Z,7.90
2023-02-06T05:49:59.050Z,7.40
2023-02-06T05:50:59.038Z,7.70
2023-02-06T05:51:59.053Z,9.30
2023-02-06T05:52:59.033Z,9.00
2023-02-06T05:53:59.014Z,8.10
2023-02-06T05:54:58.988Z,10.70
2023-02-06T05:55:58.988Z,9.20
2023-02-06T05:56:58.977Z,9.00
2023-02-06T05:57:58.991Z,9.10
2023-02-06T05:58:58.967Z,13.70
2023-02-06T05:59:58.945Z,11.10
2023-02-06T06:00:58.952Z,13.10
2023-02-06T06:01:58.942Z,11.70
2023-02-06T06:02:58.935Z,10.20
2023-02-06T06:03:58.933Z,8.00
2023-02-06T06:04:58.938Z,9.50
2023-02-06T06:05:58.884Z,15.90
2023-02-06T06:06:58.874Z,14.20
2023-02-06T06:07:58.875Z,15.00
2023-02-06T06:08:58.869Z,10.30
2023-02-06T06:09:58.836Z,13.10
2023-02-06T06:11:00.231Z,15.90
2023-02-06T06:11:58.815Z,13.90
2023-02-06T06:12:58.826Z,20.70
2023-02-06T06:13:58.790Z,19.80
2023-02-06T06:14:58.808Z,11.30
2023-02-06T06:15:58.791Z,11.20
2023-02-06T06:16:58.773Z,12.30
2023-02-06T06:17:58.781Z,13.70
2023-02-06T06:18:58.754Z,12.30
2023-02-06T06:19:58.739Z,9.80
2023-02-06T06:20:58.725Z,11.00
2023-02-06T06:21:58.734Z,11.10
2023-02-06T06:22:58.731Z,11.10
2023-02-06T06:23:58.693Z,15.60
2023-02-06T06:24:58.689Z,13.80
2023-02-06T06:25:58.699Z,10.80
2023-02-06T06:26:58.662Z,10.70
2023-02-06T06:27:58.710Z,18.30
2023-02-06T06:28:58.635Z,12.80
2023-02-06T06:29:59.681Z,13.80
2023-02-06T06:30:58.653Z,13.40
2023-02-06T06:31:58.659Z,11.60
2023-02-06T06:32:58.613Z,16.00
2023-02-06T06:33:58.692Z,15.90
2023-02-06T06:34:58.569Z,15.30
2023-02-06T06:35:58.588Z,18.10
2023-02-06T06:36:58.551Z,9.60
2023-02-06T06:37:58.552Z,14.70
2023-02-06T06:38:58.542Z,15.80
2023-02-06T06:39:58.534Z,13.40
2023-02-06T06:40:58.531Z,14.60
2023-02-06T06:41:58.493Z,13.30
2023-02-06T06:42:58.484Z,7.90
2023-02-06T06:43:58.504Z,9.50
2023-02-06T06:44:58.484Z,10.70
2023-02-06T06:45:58.462Z,10.80
2023-02-06T06:46:58.459Z,13.70
2023-02-06T06:47:58.465Z,15.70
2023-02-06T06:48:58.471Z,14.50
2023-02-06T06:49:58.559Z,14.70
2023-02-06T06:50:59.656Z,16.20
2023-02-06T06:51:58.385Z,12.10
2023-02-06T06:52:58.394Z,13.40
2023-02-06T06:53:58.365Z,13.40
2023-02-06T06:54:59.488Z,16.50
2023-02-06T06:55:58.339Z,8.30
2023-02-06T06:56:58.535Z,12.80
2023-02-06T06:57:58.365Z,9.10
2023-02-06T06:58:58.321Z,15.60
2023-02-06T06:59:58.309Z,14.80
2023-02-06T07:00:58.331Z,12.30
2023-02-06T07:01:58.305Z,11.10
2023-02-06T07:02:58.293Z,12.80
2023-02-06T07:03:58.265Z,10.20
2023-02-06T07:04:58.303Z,13.20
2023-02-06T07:05:58.274Z,9.90
2023-02-06T07:06:58.240Z,13.00
2023-02-06T07:07:58.246Z,10.90
2023-02-06T07:08:58.220Z,10.10
2023-02-06T07:09:58.201Z,11.50
2023-02-06T07:10:58.194Z,13.00
2023-02-06T07:11:59.227Z,10.30
2023-02-06T07:12:58.169Z,11.80
2023-02-06T07:13:58.151Z,10.70
2023-02-06T07:14:58.142Z,11.80
2023-02-06T07:15:58.139Z,12.90
2023-02-06T07:16:58.130Z,7.80
2023-02-06T07:17:59.149Z,8.10
2023-02-06T07:18:58.116Z,8.40
2023-02-06T07:19:58.105Z,8.40
2023-02-06T07:20:58.082Z,8.30
2023-02-06T07:21:58.090Z,8.50
2023-02-06T07:22:58.082Z,9.80
2023-02-06T07:23:58.054Z,12.50
2023-02-06T07:24:58.053Z,12.00
2023-02-06T07:25:58.039Z,10.00
2023-02-06T07:26:58.033Z,8.80
2023-02-06T07:27:58.010Z,9.20
2023-02-06T07:28:58.004Z,7.00
2023-02-06T07:29:58.004Z,7.70
2023-02-06T07:30:58.004Z,10.70
2023-02-06T07:31:58.003Z,14.70
2023-02-06T07:32:57.974Z,9.80
2023-02-06T07:33:57.956Z,13.50
2023-02-06T07:34:57.944Z,13.40
2023-02-06T07:35:57.941Z,11.50
2023-02-06T07:36:57.923Z,9.10
2023-02-06T07:37:57.995Z,10.40
2023-02-06T07:38:57.895Z,12.20
2023-02-06T07:39:57.906Z,13.40
2023-02-06T07:40:57.872Z,11.80
2023-02-06T07:41:57.856Z,12.00
2023-02-06T07:42:57.848Z,11.00
2023-02-06T07:43:57.849Z,10.50
2023-02-06T07:44:57.827Z,11.30
2023-02-06T07:45:57.869Z,14.90
2023-02-06T07:46:57.811Z,10.80
2023-02-06T07:47:57.807Z,12.80
2023-02-06T07:48:57.796Z,11.30
2023-02-06T07:49:57.784Z,12.30
2023-02-06T07:50:57.771Z,11.00
2023-02-06T07:51:57.802Z,9.30
2023-02-06T07:52:57.747Z,11.50
2023-02-06T07:53:57.750Z,9.60
2023-02-06T07:54:57.715Z,9.50
2023-02-06T07:55:57.714Z,9.50
2023-02-06T07:56:57.714Z,11.60
2023-02-06T07:57:57.706Z,9.60
2023-02-06T07:58:57.686Z,9.30
2023-02-06T07:59:57.672Z,10.30
2023-02-06T08:00:57.724Z,8.90
2023-02-06T08:01:57.649Z,10.40
2023-02-06T08:02:57.632Z,10.40
2023-02-06T08:03:57.642Z,9.00
2023-02-06T08:04:57.623Z,9.10
2023-02-06T08:05:57.611Z,8.70
2023-02-06T08:06:57.588Z,7.70
2023-02-06T08:07:57.579Z,8.60
2023-02-06T08:08:57.566Z,8.80
2023-02-06T08:09:57.577Z,10.10
2023-02-06T08:10:57.549Z,12.80
2023-02-06T08:11:57.552Z,8.40
2023-02-06T08:12:57.521Z,8.90
2023-02-06T08:13:57.520Z,14.60
2023-02-06T08:14:57.512Z,17.20
2023-02-06T08:15:57.509Z,16.50
2023-02-06T08:16:57.568Z,21.30
2023-02-06T08:17:57.527Z,16.60
2023-02-06T08:18:57.475Z,14.80
2023-02-06T08:19:57.454Z,15.20
2023-02-06T08:20:57.424Z,16.40
2023-02-06T08:21:57.426Z,10.40
2023-02-06T08:22:57.418Z,14.20
2023-02-06T08:23:57.462Z,15.40
2023-02-06T08:24:57.391Z,11.60
2023-02-06T08:25:57.427Z,13.80
2023-02-06T08:26:57.395Z,15.00
2023-02-06T08:27:57.399Z,9.20
2023-02-06T08:28:57.365Z,9.40
2023-02-06T08:29:57.347Z,8.90
2023-02-06T08:30:57.458Z,7.70
2023-02-06T08:31:57.337Z,9.60
2023-02-06T08:32:57.316Z,8.50
2023-02-06T08:33:57.330Z,8.90
2023-02-06T08:34:57.300Z,8.60
2023-02-06T08:35:57.282Z,8.30
2023-02-06T08:36:57.266Z,9.50
2023-02-06T08:37:57.263Z,7.80
2023-02-06T08:38:57.237Z,9.00
2023-02-06T08:39:57.264Z,8.70
2023-02-06T08:40:57.218Z,7.80
2023-02-06T08:41:57.245Z,7.90
2023-02-06T08:42:57.200Z,9.00
2023-02-06T08:43:57.196Z,10.10
2023-02-06T08:44:57.174Z,7.70
2023-02-06T08:45:57.227Z,7.60
2023-02-06T08:47:09.361Z,9.10
2023-02-06T08:47:58.160Z,8.00
2023-02-06T08:48:57.164Z,8.20
2023-02-06T08:49:57.124Z,8.20
2023-02-06T08:50:57.120Z,7.20
2023-02-06T08:51:57.132Z,6.90
2023-02-06T08:52:57.092Z,7.30
2023-02-06T08:53:57.078Z,8.00
2023-02-06T08:54:57.076Z,7.50
2023-02-06T08:55:57.062Z,8.00
2023-02-06T08:56:57.096Z,7.80
2023-02-06T08:57:57.060Z,7.90
2023-02-06T08:58:57.063Z,9.00
2023-02-06T08:59:57.678Z,6.60
2023-02-06T09:00:57.677Z,7.30
2023-02-06T09:01:57.690Z,7.70
2023-02-06T09:02:57.707Z,7.50
2023-02-06T09:03:57.685Z,6.90
2023-02-06T09:04:57.671Z,6.60
2023-02-06T09:06:00.126Z,6.50
2023-02-06T09:06:57.936Z,6.80
2023-02-06T09:07:57.679Z,6.40
2023-02-06T09:08:57.735Z,6.50
2023-02-06T09:09:57.685Z,7.20
2023-02-06T09:10:57.681Z,6.90
2023-02-06T09:11:57.683Z,6.20
2023-02-06T09:12:57.743Z,6.00
2023-02-06T09:13:58.742Z,6.20
2023-02-06T09:14:58.706Z,6.00
2023-02-06T09:15:58.740Z,5.90
2023-02-06T09:16:59.686Z,6.50
2023-02-06T09:17:59.728Z,5.40
2023-02-06T09:18:58.696Z,5.50
2023-02-06T09:19:59.675Z,6.10
2023-02-06T09:20:58.704Z,5.20
2023-02-06T09:21:59.680Z,5.30
2023-02-06T09:22:59.674Z,6.30
2023-02-06T09:23:58.071Z,5.70
2023-02-06T09:24:58.792Z,5.60
2023-02-06T09:25:56.753Z,5.90
2023-02-06T09:27:00.940Z,5.40
2023-02-06T09:27:59.710Z,5.80
2023-02-06T09:28:56.692Z,5.40
2023-02-06T09:29:56.718Z,6.20
2023-02-06T09:30:56.740Z,6.20
2023-02-06T09:31:56.649Z,5.30
2023-02-06T09:32:56.655Z,5.30
2023-02-06T09:33:56.650Z,5.10
2023-02-06T09:34:56.644Z,5.50
2023-02-06T09:35:57.762Z,5.20
2023-02-06T09:36:56.635Z,5.40
2023-02-06T09:37:56.595Z,6.00
2023-02-06T09:38:56.580Z,5.90
2023-02-06T09:39:56.614Z,6.70
2023-02-06T09:40:56.561Z,6.00
2023-02-06T09:41:56.546Z,6.00
2023-02-06T09:42:56.535Z,6.40
2023-02-06T09:43:56.529Z,6.30
2023-02-06T09:44:56.517Z,5.70
2023-02-06T09:45:56.644Z,5.90
2023-02-06T09:46:56.481Z,5.30
2023-02-06T09:47:56.477Z,6.60
2023-02-06T09:48:56.478Z,5.90
2023-02-06T09:49:56.484Z,5.70
2023-02-06T09:50:56.446Z,5.40
2023-02-06T09:51:56.432Z,6.20
2023-02-06T09:52:56.418Z,5.50
2023-02-06T09:53:56.434Z,5.40
2023-02-06T09:54:56.405Z,4.80
2023-02-06T09:55:56.400Z,5.20
2023-02-06T09:56:56.378Z,5.40
2023-02-06T09:57:56.395Z,5.10
2023-02-06T09:58:56.356Z,5.60
2023-02-06T09:59:56.396Z,5.10
2023-02-06T10:00:56.336Z,5.10
2023-02-06T10:01:56.430Z,5.10
2023-02-06T10:02:56.317Z,5.10
2023-02-06T10:03:56.326Z,5.20
2023-02-06T10:04:56.287Z,5.00
2023-02-06T10:05:56.283Z,5.60
2023-02-06T10:06:56.261Z,5.60
2023-02-06T10:07:56.295Z,5.60
2023-02-06T10:08:56.268Z,5.30
2023-02-06T10:09:56.248Z,6.30
2023-02-06T10:10:56.221Z,6.20
2023-02-06T10:11:56.219Z,5.90
2023-02-06T10:12:56.218Z,7.00
2023-02-06T10:13:56.203Z,5.80
2023-02-06T10:14:56.185Z,6.00
2023-02-06T10:15:56.215Z,5.60
2023-02-06T10:16:56.149Z,5.60
2023-02-06T10:17:56.195Z,5.90
2023-02-06T10:18:56.132Z,5.90
2023-02-06T10:19:56.130Z,5.30
2023-02-06T10:20:56.127Z,5.90
2023-02-06T10:21:56.101Z,6.60
2023-02-06T10:22:56.127Z,6.40
2023-02-06T10:23:56.109Z,6.70
2023-02-06T10:24:56.073Z,7.20
2023-02-06T10:25:56.063Z,7.10
2023-02-06T10:26:56.050Z,7.00
2023-02-06T10:27:56.098Z,7.00
2023-02-06T10:28:56.078Z,7.00
2023-02-06T10:29:56.042Z,6.20
2023-02-06T10:30:56.047Z,7.70
2023-02-06T10:31:56.077Z,7.40
2023-02-06T10:32:56.908Z,7.40
2023-02-06T10:33:56.019Z,7.30
2023-02-06T10:34:55.977Z,7.30
2023-02-06T10:35:55.953Z,7.40
2023-02-06T10:36:55.957Z,6.40
2023-02-06T10:37:55.944Z,7.10
2023-02-06T10:38:55.938Z,6.90
2023-02-06T10:39:55.960Z,7.20
2023-02-06T10:40:55.895Z,6.90
2023-02-06T10:41:55.893Z,8.00
2023-02-06T10:42:55.937Z,7.20
2023-02-06T10:43:55.889Z,7.90
2023-02-06T10:44:59.564Z,8.00
2023-02-06T10:45:56.856Z,7.90
2023-02-06T10:46:55.886Z,8.30
2023-02-06T10:47:55.841Z,8.60
2023-02-06T10:48:55.829Z,8.20
2023-02-06T10:49:55.854Z,8.20
2023-02-06T10:50:55.809Z,7.70
2023-02-06T10:51:55.794Z,7.00
2023-02-06T10:52:55.804Z,7.00
2023-02-06T10:53:55.765Z,7.30
2023-02-06T10:54:55.771Z,7.60
2023-02-06T10:55:55.747Z,7.60
2023-02-06T10:56:55.742Z,7.80
2023-02-06T10:57:55.716Z,8.80
2023-02-06T10:58:55.751Z,7.90
2023-02-06T10:59:55.705Z,7.60
2023-02-06T11:00:55.773Z,7.60
2023-02-06T11:01:55.748Z,9.20
2023-02-06T11:03:06.606Z,9.60
2023-02-06T11:03:56.689Z,9.80
2023-02-06T11:04:55.659Z,9.70
2023-02-06T11:05:55.689Z,9.80
2023-02-06T11:06:55.629Z,10.50
2023-02-06T11:07:55.682Z,11.00
2023-02-06T11:08:55.609Z,10.50
2023-02-06T11:09:55.604Z,11.70
2023-02-06T11:10:55.588Z,10.60
2023-02-06T11:11:55.604Z,11.20
2023-02-06T11:12:55.574Z,11.50
2023-02-06T11:13:55.565Z,11.40
2023-02-06T11:14:55.530Z,10.50
2023-02-06T11:15:55.530Z,11.60
2023-02-06T11:16:55.538Z,12.20
2023-02-06T11:17:55.518Z,12.30
2023-02-06T11:18:55.500Z,11.50
2023-02-06T11:19:55.507Z,11.20
2023-02-06T11:20:55.892Z,12.60
2023-02-06T11:21:55.509Z,12.30
2023-02-06T11:22:55.453Z,12.80
2023-02-06T11:23:55.447Z,13.90
2023-02-06T11:24:55.438Z,15.20
2023-02-06T11:25:55.418Z,14.70
2023-02-06T11:26:59.172Z,14.40
2023-02-06T11:27:55.444Z,16.90
2023-02-06T11:28:55.406Z,16.40
2023-02-06T11:29:55.387Z,15.10
2023-02-06T11:30:58.236Z,14.80
2023-02-06T11:31:55.395Z,16.30
2023-02-06T11:33:03.995Z,16.60
2023-02-06T11:33:56.325Z,15.60
2023-02-06T11:34:56.365Z,15.40
2023-02-06T11:35:55.327Z,16.40
2023-02-06T11:36:56.201Z,15.10
2023-02-06T11:37:55.421Z,16.10
2023-02-06T11:38:55.294Z,16.00
2023-02-06T11:40:02.175Z,15.50
2023-02-06T11:40:55.257Z,16.10
2023-02-06T11:41:55.250Z,15.30
2023-02-06T11:42:55.250Z,16.90
2023-02-06T11:43:56.174Z,15.30
2023-02-06T11:44:55.206Z,14.70
2023-02-06T11:45:55.266Z,15.60
2023-02-06T11:46:55.184Z,16.30
2023-02-06T11:47:55.219Z,17.40
2023-02-06T11:48:55.186Z,17.00
2023-02-06T11:49:55.171Z,16.90
2023-02-06T11:50:55.150Z,18.20
2023-02-06T11:51:55.158Z,17.30
2023-02-06T11:52:55.667Z,17.40
2023-02-06T11:53:55.140Z,16.10
2023-02-06T11:54:55.099Z,16.30
2023-02-06T11:55:55.103Z,17.30
2023-02-06T11:56:55.074Z,17.20
2023-02-06T11:57:55.090Z,16.40
2023-02-06T11:58:57.668Z,16.40
2023-02-06T11:59:55.675Z,16.60
2023-02-06T12:00:55.040Z,17.10
2023-02-06T12:01:55.053Z,17.00
2023-02-06T12:02:55.024Z,17.60
2023-02-06T12:03:55.017Z,18.10
2023-02-06T12:04:54.989Z,15.80
2023-02-06T12:05:57.882Z,17.30
2023-02-06T12:06:54.977Z,16.40
2023-02-06T12:07:54.982Z,16.50
2023-02-06T12:08:57.692Z,15.80
2023-02-06T12:09:57.697Z,15.60
2023-02-06T12:10:54.931Z,16.40
2023-02-06T12:11:54.949Z,16.20
2023-02-06T12:12:55.203Z,17.00
2023-02-06T12:13:54.911Z,15.60
2023-02-06T12:14:54.896Z,16.80
2023-02-06T12:15:55.121Z,17.20
2023-02-06T12:16:54.926Z,18.50
2023-02-06T12:17:55.681Z,21.90
2023-02-06T12:18:54.838Z,20.10
2023-02-06T12:19:54.846Z,21.40
2023-02-06T12:20:54.843Z,20.50
2023-02-06T12:21:54.860Z,19.00
2023-02-06T12:22:54.812Z,18.00
2023-02-06T12:23:54.791Z,18.00
2023-02-06T12:24:54.812Z,19.10
2023-02-06T12:25:54.800Z,17.30
2023-02-06T12:26:54.752Z,17.40
2023-02-06T12:27:54.814Z,16.20
2023-02-06T12:28:54.718Z,17.10
2023-02-06T12:29:55.668Z,15.90
2023-02-06T12:30:55.799Z,16.50
2023-02-06T12:31:54.967Z,16.50
2023-02-06T12:32:55.189Z,15.60
2023-02-06T12:33:55.669Z,15.70
2023-02-06T12:34:54.670Z,15.30
2023-02-06T12:35:55.171Z,15.30
2023-02-06T12:36:54.646Z,14.80
2023-02-06T12:37:54.659Z,15.10
2023-02-06T12:38:57.175Z,14.50
2023-02-06T12:39:54.608Z,15.50
2023-02-06T12:40:54.618Z,14.80
2023-02-06T12:41:54.587Z,13.70
2023-02-06T12:42:54.596Z,13.20
2023-02-06T12:43:54.681Z,13.60
2023-02-06T12:44:55.605Z,12.60
2023-02-06T12:45:54.605Z,13.60
2023-02-06T12:46:54.548Z,12.90
2023-02-06T12:47:54.519Z,12.10
2023-02-06T12:48:54.516Z,13.80
2023-02-06T12:49:54.527Z,15.00
2023-02-06T12:50:54.507Z,14.00
2023-02-06T12:51:54.493Z,13.50
2023-02-06T12:52:54.489Z,13.40
2023-02-06T12:53:54.457Z,13.20
2023-02-06T12:54:54.456Z,13.80
2023-02-06T12:55:54.681Z,14.60
2023-02-06T12:56:54.490Z,14.50
2023-02-06T12:57:54.686Z,14.00
2023-02-06T12:58:54.423Z,13.30
2023-02-06T12:59:58.357Z,13.90
2023-02-06T13:00:54.382Z,14.00
2023-02-06T13:01:54.413Z,13.90
2023-02-06T13:02:54.453Z,14.20
2023-02-06T13:03:54.364Z,13.70
2023-02-06T13:04:54.345Z,15.40
2023-02-06T13:05:54.354Z,13.20
2023-02-06T13:06:54.329Z,15.50
2023-02-06T13:07:54.316Z,14.10
2023-02-06T13:08:54.305Z,13.90
2023-02-06T13:09:55.194Z,12.30